Latest  Newer  Older  Last 2 hours slideshow  Last 24 hours slideshow  Refresh every 5 minutes 
Current image  Latest image  Rain/snow radar  Cloud coverage sat images 

All time is UTC (add 2 hours to UTC in wintertime, 3 hours to UTC in DST for Latvia local time)

2020/02/21 21:50 EVRA 212150Z 18008KT 9999 FEW007 M00/M00 Q1013 R18/310195 NOSIG
2020/02/21 21:50 EVLA 212150Z AUTO 21014KT 9999 BKN011/// BKN220/// 05/04 Q1013
2020/02/21 21:50 EVVA 212150Z AUTO 21015KT CAVOK 05/05 Q1010
2020/02/21 21:50 EYKA 212150Z 21005KT 9999 -RA FEW015 BKN023 OVC039 03/01 Q1018 R08/190095
2020/02/21 21:50 EYPA 212150Z 23008KT 190V280 9999 FEW013 SCT023 05/04 Q1015 R19/1///95
2020/02/21 21:50 EYSA 212150Z 21009KT 9999 BKN012 OVC036 04/02 Q1015 R14L/09//95 R14R/09//95 GRN TEMPO FEW010 BKN024 WHT
2020/02/21 21:50 EYVI 212150Z 22007KT 9000 -RA OVC005 01/00 Q1019 R19/2///95 NOSIG



2020/02/21 21:50 EETN 212150Z 21015KT CAVOK 03/01 Q1005 R08/290195 TEMPO 19015G25KT

   RIGA AIRPORT     EVRA               56 55N  023 58E   10   X     T          6 LV
   LIEPAJA INTL     EVLA        26406  56 31N  021 06E    4   X                8 LV
   VENTPILS         EVVA               57 21N  021 33E    6   X                8 LV
   KAUNAS           EYKA               54 54N  023 55E   77   X     T          6 LT
   PALANGA INTL     EYPA               55 55N  021 03E   10   X                6 LT
   SIAULIAI INTL    EYSA               55 54N  023 24E  135   X     T          6 LT
   VILNIUS INTL     EYVI        26730  54 38N  025 17E  197   X     T          6 LT
   KARDLA           EEKA        26116  58 59N  022 50E    4   X                8 EE
   KURESSAARE       EEKE               58 14N  022 31E    4   X                8 EE
   PARNU            EEPU               58 25N  024 28E   14   X                8 EE
   TALLINN          EETN        26038  59 24N  024 49E   40   X     T          8 EE
   TARTU            EETU               58 19N  026 41E   67   X                8 EE